Time;durP1;ratioP1;P1;durP2;ratioP2;P2;SDS_P1;SDS_P2;PMS_P1;PMS_P2;Temp;Humidity;BMP_temperature;BMP_pressure;BME280_temperature;BME280_humidity;BME280_pressure;Samples;Min_cycle;Max_cycle;Signal;HPM_P1;HPM_P2
2021/12/16 00:09:01;;;;;;;27.17;7.63;;;9.10;99.90;;;;;;5073019;28;20090;-65
2021/12/16 00:20:15;;;;;;;25.75;9.10;;;9.10;99.90;;;;;;5074243;28;20568;-65
2021/12/16 00:35:39;;;;;;;34.92;10.07;;;9.10;99.90;;;;;;5072730;28;20056;-65
2021/12/16 00:38:05;;;;;;;39.35;11.13;;;9.10;99.90;;;;;;5076324;28;20033;-65
2021/12/16 00:40:31;;;;;;;25.60;9.98;;;9.10;99.90;;;;;;5074021;28;20032;-66
2021/12/16 00:43:09;;;;;;;27.70;9.18;;;9.00;99.90;;;;;;5073650;28;20028;-66
2021/12/16 00:45:43;;;;;;;27.77;9.98;;;9.00;99.90;;;;;;5075177;28;20016;-66
2021/12/16 00:48:23;;;;;;;26.25;9.10;;;9.00;99.90;;;;;;5066864;28;20028;-66
2021/12/16 00:56:09;;;;;;;29.58;9.75;;;9.10;99.90;;;;;;5074660;28;20039;-65
2021/12/16 00:58:44;;;;;;;25.17;8.65;;;9.10;99.90;;;;;;5070838;28;20017;-65
2021/12/16 01:01:25;;;;;;;23.52;7.95;;;9.10;99.90;;;;;;5070516;28;20090;-65
2021/12/16 01:04:14;;;;;;;29.05;9.50;;;9.10;99.90;;;;;;5065997;28;20104;-65
2021/12/16 01:06:58;;;;;;;22.88;9.07;;;9.10;99.90;;;;;;5068747;28;20328;-66
2021/12/16 01:37:30;;;;;;;32.70;9.55;;;9.00;99.90;;;;;;5065937;28;20024;-65
2021/12/16 01:42:41;;;;;;;20.60;9.68;;;9.00;99.90;;;;;;5076701;28;20032;-65
2021/12/16 01:50:45;;;;;;;30.40;8.55;;;9.00;99.90;;;;;;5064161;28;20089;-65
2021/12/16 01:55:51;;;;;;;29.83;10.05;;;9.10;99.90;;;;;;5074515;28;20024;-65
2021/12/16 01:58:23;;;;;;;29.83;9.93;;;8.90;99.90;;;;;;5073464;28;20031;-65
2021/12/16 02:03:47;;;;;;;28.92;8.80;;;9.00;99.90;;;;;;5071488;28;20418;-65
2021/12/16 02:08:47;;;;;;;25.98;9.95;;;9.00;99.90;;;;;;5072592;28;20024;-65
2021/12/16 02:30:51;;;;;;;27.30;9.73;;;9.00;99.90;;;;;;5068667;28;20062;-65
2021/12/16 02:35:33;;;;;;;39.90;12.35;;;9.00;99.90;;;;;;5064682;28;20353;-65
2021/12/16 02:38:03;;;;;;;24.95;7.38;;;9.00;99.90;;;;;;5068850;28;20119;-65
2021/12/16 02:40:29;;;;;;;37.97;12.00;;;9.00;99.90;;;;;;5070666;28;20028;-64
2021/12/16 02:43:20;;;;;;;31.10;9.05;;;9.10;99.90;;;;;;5073066;28;20062;-64
2021/12/16 02:48:40;;;;;;;41.05;12.23;;;9.00;99.90;;;;;;5069058;28;20085;-65
2021/12/16 02:51:20;;;;;;;36.25;13.00;;;9.00;99.90;;;;;;5072578;28;20063;-65
2021/12/16 02:53:49;;;;;;;36.00;10.90;;;9.10;99.90;;;;;;5074583;28;20067;-64
2021/12/16 02:56:16;;;;;;;35.85;10.65;;;9.10;99.90;;;;;;5076973;28;20081;-64
2021/12/16 02:58:47;;;;;;;39.88;13.07;;;9.10;99.90;;;;;;5077092;28;20047;-64
2021/12/16 03:01:28;;;;;;;40.85;13.35;;;9.10;99.90;;;;;;5073788;28;20028;-65
2021/12/16 03:03:54;;;;;;;33.95;10.77;;;9.10;99.90;;;;;;5077408;28;20024;-65
2021/12/16 03:06:20;;;;;;;21.45;9.05;;;9.20;99.90;;;;;;5068419;28;20457;-65
2021/12/16 03:08:48;;;;;;;38.05;10.45;;;9.10;99.90;;;;;;5071667;28;20116;-65
2021/12/16 03:11:31;;;;;;;40.72;11.45;;;9.10;99.90;;;;;;5070435;28;20038;-65
2021/12/16 03:16:50;;;;;;;30.77;12.05;;;9.20;99.90;;;;;;5072314;28;20059;-65
2021/12/16 03:19:25;;;;;;;34.42;10.88;;;9.20;99.90;;;;;;5073207;28;20056;-65
2021/12/16 03:21:55;;;;;;;46.13;14.52;;;9.10;99.90;;;;;;5073861;28;20428;-65
2021/12/16 03:35:02;;;;;;;33.40;9.38;;;9.10;99.90;;;;;;5073535;28;20348;-65
2021/12/16 03:37:29;;;;;;;49.35;11.32;;;9.10;99.90;;;;;;5072319;28;20488;-65
2021/12/16 03:40:14;;;;;;;28.08;10.20;;;9.20;99.90;;;;;;5069526;28;20078;-65
2021/12/16 03:42:41;;;;;;;49.85;11.18;;;9.10;99.90;;;;;;5071159;28;20046;-65
2021/12/16 03:48:09;;;;;;;44.83;13.15;;;9.00;99.90;;;;;;5057677;28;20037;-65
2021/12/16 03:50:35;;;;;;;42.80;10.90;;;9.00;99.90;;;;;;5072185;28;20472;-65
2021/12/16 03:53:01;;;;;;;37.03;11.40;;;8.90;99.90;;;;;;5067251;28;20023;-65
2021/12/16 03:55:27;;;;;;;35.33;11.88;;;8.90;99.90;;;;;;5073290;28;20419;-65
2021/12/16 03:57:53;;;;;;;30.58;10.52;;;8.90;99.90;;;;;;5074999;28;20086;-65
2021/12/16 04:00:34;;;;;;;46.78;11.50;;;8.90;99.90;;;;;;5074595;28;20047;-65
2021/12/16 04:03:00;;;;;;;36.55;11.45;;;8.90;99.90;;;;;;5072907;28;20032;-65
2021/12/16 04:05:26;;;;;;;37.75;12.43;;;8.90;99.90;;;;;;5068468;28;20028;-65
2021/12/16 04:07:52;;;;;;;36.13;11.05;;;8.90;99.90;;;;;;5074366;28;20019;-65
2021/12/16 04:10:31;;;;;;;25.33;10.90;;;8.90;99.90;;;;;;5080526;28;20044;-65
2021/12/16 04:12:56;;;;;;;36.97;10.20;;;9.00;99.90;;;;;;5077471;28;20424;-65
2021/12/16 04:15:22;;;;;;;37.40;10.13;;;8.80;99.90;;;;;;5080506;28;20488;-65
2021/12/16 04:17:48;;;;;;;44.10;12.50;;;9.00;99.90;;;;;;5068576;28;20146;-65
2021/12/16 04:20:15;;;;;;;34.20;11.07;;;8.90;99.90;;;;;;5070105;28;20025;-65
2021/12/16 04:22:44;;;;;;;34.03;10.60;;;8.90;99.90;;;;;;5068819;28;20385;-65
2021/12/16 04:25:13;;;;;;;30.02;10.45;;;8.90;99.90;;;;;;5070818;28;20016;-65
2021/12/16 04:27:40;;;;;;;41.63;11.57;;;8.80;99.90;;;;;;5074962;28;20043;-65
2021/12/16 04:30:09;;;;;;;40.58;10.75;;;8.90;99.90;;;;;;5080452;28;20032;-65
2021/12/16 04:32:35;;;;;;;27.45;9.25;;;8.90;99.90;;;;;;5065127;28;20122;-66
2021/12/16 04:35:01;;;;;;;42.92;10.20;;;8.90;99.90;;;;;;5066025;28;20035;-65
2021/12/16 04:37:27;;;;;;;29.10;10.77;;;8.90;99.90;;;;;;5071976;28;20067;-65
2021/12/16 04:39:52;;;;;;;38.15;11.63;;;8.90;99.90;;;;;;5072493;28;20056;-65
2021/12/16 04:42:22;;;;;;;37.83;10.85;;;8.90;99.90;;;;;;5081378;28;20016;-65
2021/12/16 04:44:47;;;;;;;44.45;12.00;;;8.80;99.90;;;;;;5075395;28;20024;-65
2021/12/16 04:47:13;;;;;;;40.88;9.85;;;8.90;99.90;;;;;;5072602;28;20028;-65
2021/12/16 04:49:39;;;;;;;33.70;11.15;;;8.90;99.90;;;;;;5070781;28;20021;-65
2021/12/16 04:52:09;;;;;;;30.10;10.13;;;8.90;99.90;;;;;;5070170;28;20391;-65
2021/12/16 04:54:35;;;;;;;39.40;9.90;;;8.90;99.90;;;;;;5076512;28;20032;-65
2021/12/16 04:57:01;;;;;;;24.33;8.57;;;8.90;99.90;;;;;;5077175;28;20432;-65
2021/12/16 04:59:29;;;;;;;40.53;11.80;;;8.90;99.90;;;;;;5073957;28;20031;-65
2021/12/16 05:02:05;;;;;;;35.40;11.25;;;8.90;99.90;;;;;;5072896;28;20316;-65
2021/12/16 05:04:31;;;;;;;41.33;10.70;;;8.90;99.90;;;;;;5071084;28;20038;-65
2021/12/16 05:06:57;;;;;;;41.25;11.40;;;8.90;99.90;;;;;;5077095;28;20039;-65
2021/12/16 05:10:04;;;;;;;30.52;10.65;;;8.90;99.90;;;;;;5075631;28;20481;-65
2021/12/16 05:12:20;;;;;;;36.63;10.68;;;8.90;99.90;;;;;;5068636;28;20170;-65
2021/12/16 05:14:47;;;;;;;22.85;7.93;;;8.90;99.90;;;;;;5073144;28;20040;-65
2021/12/16 05:17:33;;;;;;;39.88;10.18;;;8.90;99.90;;;;;;5076886;28;20176;-65
2021/12/16 05:20:08;;;;;;;48.15;12.07;;;8.80;99.90;;;;;;5073230;28;20048;-65
2021/12/16 05:25:27;;;;;;;31.73;10.70;;;8.90;99.90;;;;;;5068431;28;20022;-65
2021/12/16 05:27:53;;;;;;;26.40;9.27;;;8.90;99.90;;;;;;5075970;28;20615;-65
2021/12/16 05:30:19;;;;;;;33.03;11.10;;;8.90;99.90;;;;;;5080344;28;20028;-65
2021/12/16 05:32:46;;;;;;;37.92;9.95;;;8.80;99.90;;;;;;5070145;28;20126;-65
2021/12/16 05:35:19;;;;;;;40.55;12.20;;;8.80;99.90;;;;;;5078657;28;20020;-65
2021/12/16 05:37:45;;;;;;;30.02;10.57;;;8.90;99.90;;;;;;5084220;28;20398;-66
2021/12/16 05:40:14;;;;;;;27.25;10.02;;;8.90;99.90;;;;;;5084045;28;20016;-65
2021/12/16 05:42:40;;;;;;;38.38;11.43;;;8.90;99.90;;;;;;5083162;28;20028;-65
2021/12/16 05:45:09;;;;;;;42.03;10.75;;;8.90;99.90;;;;;;5082209;28;20027;-65
2021/12/16 05:47:34;;;;;;;28.10;10.60;;;8.80;99.90;;;;;;5082203;28;20071;-65
2021/12/16 05:50:00;;;;;;;34.65;10.07;;;8.80;99.90;;;;;;5070564;28;20440;-65
2021/12/16 05:52:26;;;;;;;41.72;12.73;;;8.80;99.90;;;;;;5082385;28;20547;-66
2021/12/16 05:54:52;;;;;;;39.85;12.20;;;8.70;99.90;;;;;;5082567;28;20357;-65
2021/12/16 05:57:17;;;;;;;28.55;10.70;;;8.70;99.90;;;;;;5081538;28;20028;-65
2021/12/16 05:59:43;;;;;;;34.95;11.15;;;8.70;99.90;;;;;;5083099;28;20080;-66
2021/12/16 06:02:09;;;;;;;44.33;11.82;;;8.70;99.90;;;;;;5080508;28;20020;-65
2021/12/16 06:04:34;;;;;;;34.17;10.57;;;8.70;99.90;;;;;;5080409;28;20097;-66
2021/12/16 06:07:00;;;;;;;41.78;10.20;;;8.70;99.90;;;;;;5076907;28;20024;-66
2021/12/16 06:09:26;;;;;;;33.15;10.43;;;8.70;99.90;;;;;;5074916;28;20466;-65
2021/12/16 06:11:54;;;;;;;36.22;10.05;;;8.70;99.90;;;;;;5077853;28;20031;-65
2021/12/16 06:14:42;;;;;;;41.92;12.73;;;8.70;99.90;;;;;;5075806;28;20437;-66
2021/12/16 06:27:52;;;;;;;27.17;9.88;;;8.20;99.90;;;;;;5072898;28;20023;-66
2021/12/16 06:30:25;;;;;;;34.72;10.55;;;8.00;99.90;;;;;;5083217;28;20026;-66
2021/12/16 06:32:51;;;;;;;46.70;11.05;;;7.90;99.90;;;;;;5077203;28;20062;-65
2021/12/16 06:35:17;;;;;;;28.75;9.02;;;7.80;99.90;;;;;;5069499;28;20082;-66
2021/12/16 06:37:43;;;;;;;34.00;9.70;;;7.60;99.90;;;;;;5072412;28;20070;-66
2021/12/16 06:40:10;;;;;;;46.55;11.85;;;7.60;99.90;;;;;;5073106;28;20052;-66
2021/12/16 06:42:38;;;;;;;33.90;10.80;;;7.50;99.90;;;;;;5067788;28;20393;-66
2021/12/16 06:45:10;;;;;;;33.08;10.23;;;7.40;99.90;;;;;;5074607;28;20054;-65
2021/12/16 06:47:43;;;;;;;36.85;11.05;;;7.30;99.90;;;;;;5065909;28;20013;-66
2021/12/16 06:50:14;;;;;;;29.30;11.20;;;7.20;99.90;;;;;;5076600;28;20522;-65
2021/12/16 06:52:46;;;;;;;33.78;9.45;;;7.30;99.90;;;;;;5082330;28;20035;-65
2021/12/16 06:55:22;;;;;;;27.48;10.40;;;7.10;99.90;;;;;;5076258;28;20050;-65
2021/12/16 06:57:55;;;;;;;25.95;9.90;;;7.00;99.90;;;;;;5071075;28;20404;-65
2021/12/16 07:00:38;;;;;;;34.67;11.30;;;7.00;99.90;;;;;;5072156;28;20028;-65
2021/12/16 07:03:06;;;;;;;33.40;9.65;;;6.80;99.90;;;;;;5073874;28;20111;-65
2021/12/16 07:05:38;;;;;;;25.33;8.30;;;6.70;99.90;;;;;;5067824;28;20527;-65
2021/12/16 07:08:08;;;;;;;23.60;10.05;;;6.70;99.90;;;;;;5072412;28;20066;-65
2021/12/16 07:10:34;;;;;;;42.70;12.17;;;6.60;99.90;;;;;;5076792;28;20487;-65
2021/12/16 07:13:07;;;;;;;28.05;10.80;;;6.80;99.90;;;;;;5071699;28;20036;-65
2021/12/16 07:15:35;;;;;;;29.92;10.18;;;7.00;99.90;;;;;;5078335;28;20031;-66
2021/12/16 07:18:01;;;;;;;34.67;11.32;;;7.20;99.90;;;;;;5073349;28;20033;-65
2021/12/16 07:20:30;;;;;;;26.08;8.93;;;7.30;99.90;;;;;;5067782;28;20044;-65
2021/12/16 07:22:59;;;;;;;26.38;9.93;;;7.40;99.90;;;;;;5072035;28;20107;-65
2021/12/16 07:25:24;;;;;;;38.53;10.93;;;7.60;99.90;;;;;;5067271;28;20399;-65
2021/12/16 07:27:51;;;;;;;30.05;8.88;;;7.70;99.90;;;;;;5071101;28;20020;-65
2021/12/16 07:30:18;;;;;;;38.72;10.32;;;7.70;99.90;;;;;;5068266;28;20062;-65
2021/12/16 07:32:44;;;;;;;30.77;9.23;;;7.70;99.90;;;;;;5066801;28;20450;-65
2021/12/16 07:35:13;;;;;;;32.00;9.13;;;7.70;99.90;;;;;;5064154;28;20056;-65
2021/12/16 07:37:40;;;;;;;25.23;9.35;;;7.70;99.90;;;;;;5066055;28;20044;-66
2021/12/16 07:40:08;;;;;;;31.13;9.15;;;7.80;99.90;;;;;;5075679;28;20059;-65
2021/12/16 07:42:59;;;;;;;42.25;9.85;;;7.90;99.90;;;;;;5074901;28;20012;-65
2021/12/16 07:45:27;;;;;;;27.58;10.05;;;8.00;99.90;;;;;;5076875;28;20047;-65
2021/12/16 07:47:54;;;;;;;36.72;11.40;;;8.00;99.90;;;;;;5076426;28;20019;-65
2021/12/16 07:50:20;;;;;;;26.15;9.57;;;8.00;99.90;;;;;;5077161;28;20092;-65
2021/12/16 07:52:46;;;;;;;32.65;9.93;;;8.00;99.90;;;;;;5072625;28;20032;-65
2021/12/16 07:55:14;;;;;;;36.45;9.00;;;8.10;99.90;;;;;;5070960;28;20031;-65
2021/12/16 07:57:41;;;;;;;39.63;12.50;;;8.10;99.90;;;;;;5071812;28;20062;-65
2021/12/16 08:00:18;;;;;;;27.83;10.27;;;8.20;99.90;;;;;;5073681;28;20040;-65
2021/12/16 08:02:44;;;;;;;40.20;11.07;;;8.30;99.90;;;;;;5074181;28;20031;-65
2021/12/16 08:05:11;;;;;;;39.78;11.20;;;8.40;99.90;;;;;;5073205;28;20016;-65
2021/12/16 08:07:39;;;;;;;35.10;9.90;;;8.40;99.90;;;;;;5075096;28;20028;-65
2021/12/16 08:10:12;;;;;;;41.50;10.82;;;8.40;99.90;;;;;;5076154;28;20016;-65
2021/12/16 08:12:38;;;;;;;41.83;12.73;;;8.40;99.90;;;;;;5073010;28;20438;-65
2021/12/16 08:15:05;;;;;;;29.00;8.85;;;8.40;99.90;;;;;;5073365;28;20025;-65
2021/12/16 08:17:31;;;;;;;33.65;9.40;;;8.50;99.90;;;;;;5070478;28;20050;-65
2021/12/16 08:19:57;;;;;;;41.83;10.13;;;8.50;99.90;;;;;;5072106;28;20033;-65
2021/12/16 08:22:23;;;;;;;36.63;12.45;;;8.60;99.90;;;;;;5083022;28;20491;-65
2021/12/16 08:24:49;;;;;;;31.60;10.25;;;8.60;99.90;;;;;;5076201;28;20438;-65
2021/12/16 08:27:15;;;;;;;41.65;9.98;;;8.70;99.90;;;;;;5074116;28;20055;-65
2021/12/16 08:29:41;;;;;;;36.58;11.00;;;8.70;99.90;;;;;;5072602;28;20032;-65
2021/12/16 08:32:08;;;;;;;42.65;11.35;;;8.60;99.90;;;;;;5074399;28;20032;-65
2021/12/16 08:34:37;;;;;;;28.90;10.85;;;8.70;99.90;;;;;;5072218;28;20065;-65
2021/12/16 08:37:04;;;;;;;39.55;11.23;;;8.80;99.90;;;;;;5074679;28;20034;-65
2021/12/16 08:39:29;;;;;;;35.38;11.38;;;8.70;99.90;;;;;;5071653;28;20021;-65
2021/12/16 08:41:57;;;;;;;52.60;13.98;;;8.80;99.90;;;;;;5072494;28;20035;-65
2021/12/16 08:44:24;;;;;;;30.48;10.35;;;8.90;99.90;;;;;;5073514;28;20400;-65
2021/12/16 08:46:54;;;;;;;44.95;10.18;;;8.80;99.90;;;;;;5078380;28;20027;-65
2021/12/16 08:49:20;;;;;;;34.70;9.88;;;8.90;99.90;;;;;;5073646;28;20024;-65
2021/12/16 08:51:50;;;;;;;26.58;10.23;;;8.80;99.90;;;;;;5071436;28;20029;-65
2021/12/16 08:54:18;;;;;;;35.15;9.80;;;8.80;99.90;;;;;;5075104;28;20111;-65
2021/12/16 08:56:44;;;;;;;43.83;13.02;;;8.90;99.90;;;;;;5072183;28;20488;-65
2021/12/16 08:59:11;;;;;;;48.83;12.32;;;8.80;99.90;;;;;;5075110;28;20020;-65
2021/12/16 09:01:44;;;;;;;30.77;11.30;;;8.90;99.90;;;;;;5076222;28;20564;-66
2021/12/16 09:04:10;;;;;;;37.45;10.80;;;9.00;99.90;;;;;;5073751;28;20068;-65
2021/12/16 09:06:36;;;;;;;49.80;13.73;;;9.00;99.90;;;;;;5075019;28;20024;-65
2021/12/16 09:09:04;;;;;;;44.75;10.60;;;9.10;99.90;;;;;;5070953;28;20029;-65
2021/12/16 09:11:34;;;;;;;37.70;12.30;;;9.10;99.90;;;;;;5072395;28;20083;-65
2021/12/16 09:14:00;;;;;;;38.78;12.10;;;9.20;99.90;;;;;;5071775;28;20626;-65
2021/12/16 09:16:28;;;;;;;39.70;11.65;;;9.00;99.90;;;;;;5072445;28;20036;-65
2021/12/16 09:18:55;;;;;;;40.00;12.50;;;9.20;99.90;;;;;;5072866;28;20054;-65
2021/12/16 09:21:24;;;;;;;42.72;11.10;;;9.20;99.90;;;;;;5072448;28;20045;-65
2021/12/16 09:23:52;;;;;;;29.10;10.90;;;9.30;99.90;;;;;;5065854;28;20105;-65
2021/12/16 09:26:18;;;;;;;50.35;13.30;;;9.30;99.90;;;;;;5075996;28;20126;-65
2021/12/16 09:28:45;;;;;;;50.45;14.25;;;9.40;99.90;;;;;;5082123;28;20066;-65
2021/12/16 09:31:13;;;;;;;44.25;11.48;;;9.30;99.90;;;;;;5067702;28;20030;-65
2021/12/16 09:33:43;;;;;;;37.95;11.43;;;9.40;99.90;;;;;;5069360;28;20472;-66
2021/12/16 09:36:10;;;;;;;50.35;12.77;;;9.50;99.90;;;;;;5070498;28;20484;-65
2021/12/16 09:38:36;;;;;;;50.05;13.60;;;9.60;99.90;;;;;;5074544;28;20029;-65
2021/12/16 09:41:03;;;;;;;45.22;11.27;;;9.60;99.90;;;;;;5071148;28;20024;-65
2021/12/16 09:43:32;;;;;;;49.05;9.07;;;9.60;99.90;;;;;;5075919;28;20017;-65
2021/12/16 09:46:03;;;;;;;43.53;13.85;;;9.70;99.90;;;;;;5067089;28;20550;-65
2021/12/16 09:48:31;;;;;;;46.33;11.20;;;9.80;99.90;;;;;;5073409;28;20448;-65
2021/12/16 09:50:58;;;;;;;46.55;12.30;;;9.90;99.90;;;;;;5068498;28;20024;-65
2021/12/16 09:53:24;;;;;;;37.15;11.27;;;9.90;99.90;;;;;;5073051;28;20032;-65
2021/12/16 09:55:56;;;;;;;34.75;12.52;;;10.00;99.90;;;;;;5077033;28;20032;-65
2021/12/16 09:58:22;;;;;;;42.17;10.57;;;10.00;99.90;;;;;;5077713;28;20025;-65
2021/12/16 10:00:48;;;;;;;42.92;11.57;;;9.90;99.90;;;;;;5076461;28;20020;-65
2021/12/16 10:03:14;;;;;;;45.33;12.30;;;10.00;99.90;;;;;;5077990;28;20032;-65
2021/12/16 10:05:40;;;;;;;55.95;12.65;;;9.90;99.90;;;;;;5071847;28;20144;-65
2021/12/16 10:08:08;;;;;;;40.88;13.00;;;9.90;99.90;;;;;;5074456;28;20020;-65
2021/12/16 10:10:35;;;;;;;41.58;10.93;;;9.80;99.90;;;;;;5079168;28;20062;-65
2021/12/16 10:13:03;;;;;;;37.55;10.57;;;9.80;99.90;;;;;;5071884;28;20133;-65
2021/12/16 10:18:15;;;;;;;53.50;14.77;;;9.70;99.90;;;;;;5073649;28;20115;-65
2021/12/16 10:20:54;;;;;;;46.97;13.02;;;9.60;99.90;;;;;;5073984;28;20130;-65
2021/12/16 10:23:35;;;;;;;52.47;13.35;;;9.70;99.90;;;;;;5073289;28;20099;-65
2021/12/16 10:26:07;;;;;;;51.08;13.93;;;9.70;99.90;;;;;;5072045;28;20024;-65
2021/12/16 10:28:42;;;;;;;51.42;12.05;;;9.80;99.90;;;;;;5070794;28;20412;-65
2021/12/16 10:31:16;;;;;;;35.00;9.98;;;9.90;99.90;;;;;;5083523;28;20047;-65
2021/12/16 10:34:04;;;;;;;38.10;10.63;;;9.90;99.90;;;;;;5082033;28;20024;-65
2021/12/16 10:36:48;;;;;;;42.95;12.32;;;9.80;99.90;;;;;;5067389;28;20063;-65
2021/12/16 10:39:26;;;;;;;39.08;10.65;;;9.80;99.90;;;;;;5073271;28;20034;-65
2021/12/16 10:42:07;;;;;;;31.92;10.25;;;9.80;99.90;;;;;;5070010;28;20511;-65
2021/12/16 10:44:37;;;;;;;34.25;11.90;;;9.90;99.90;;;;;;5070978;28;20028;-65
2021/12/16 10:47:09;;;;;;;42.55;10.65;;;9.80;99.90;;;;;;5069131;28;20028;-65
2021/12/16 10:49:42;;;;;;;48.65;12.20;;;9.80;99.90;;;;;;5072912;28;20033;-66
2021/12/16 10:52:10;;;;;;;39.05;10.23;;;9.90;99.90;;;;;;5066121;28;20476;-65
2021/12/16 10:54:38;;;;;;;41.80;10.38;;;9.90;99.90;;;;;;5075260;28;20082;-65
2021/12/16 10:57:12;;;;;;;44.08;10.68;;;9.80;99.90;;;;;;5077807;28;20087;-65
2021/12/16 10:59:47;;;;;;;28.17;10.07;;;9.80;99.90;;;;;;5070977;28;20024;-65
2021/12/16 11:02:22;;;;;;;36.25;10.55;;;9.80;99.90;;;;;;5076221;28;20522;-65
2021/12/16 11:04:57;;;;;;;39.08;11.63;;;9.80;99.90;;;;;;5068318;28;20362;-65
2021/12/16 11:07:33;;;;;;;36.55;10.85;;;9.90;99.90;;;;;;5072161;28;20031;-65
2021/12/16 11:10:11;;;;;;;43.17;11.45;;;9.90;99.90;;;;;;5082379;28;20107;-64
2021/12/16 11:12:48;;;;;;;33.38;10.90;;;9.90;99.90;;;;;;5076287;28;20111;-65
2021/12/16 11:15:13;;;;;;;41.58;8.45;;;9.90;99.90;;;;;;5069944;28;20016;-64
2021/12/16 11:18:02;;;;;;;31.25;10.43;;;9.90;99.90;;;;;;5077001;28;20046;-64
2021/12/16 11:20:48;;;;;;;49.65;12.48;;;9.90;99.90;;;;;;5075707;28;20032;-64
2021/12/16 11:23:24;;;;;;;45.40;10.45;;;9.90;99.90;;;;;;5077137;28;20104;-65
2021/12/16 11:25:54;;;;;;;52.17;11.82;;;9.80;99.90;;;;;;5077433;28;20054;-64
2021/12/16 11:28:31;;;;;;;46.83;11.20;;;9.90;99.90;;;;;;5070228;28;20024;-65
2021/12/16 11:31:07;;;;;;;34.67;11.73;;;9.90;99.90;;;;;;5071950;28;20016;-65
2021/12/16 11:33:46;;;;;;;37.47;11.00;;;9.90;99.90;;;;;;5069942;28;20524;-65
2021/12/16 11:36:12;;;;;;;31.02;10.55;;;10.00;99.90;;;;;;5069840;28;20032;-65
2021/12/16 11:38:45;;;;;;;43.88;10.55;;;10.00;99.90;;;;;;5073033;28;20081;-64
2021/12/16 11:41:22;;;;;;;41.25;12.57;;;9.90;99.90;;;;;;5076251;28;20028;-65
2021/12/16 11:44:18;;;;;;;37.78;10.60;;;9.90;99.90;;;;;;5069517;28;20032;-65
2021/12/16 11:46:47;;;;;;;56.85;11.60;;;9.90;99.90;;;;;;5056364;28;20032;-65
2021/12/16 11:49:21;;;;;;;47.75;12.45;;;10.00;99.90;;;;;;5075658;28;20062;-65
2021/12/16 11:52:21;;;;;;;43.70;10.45;;;10.10;99.90;;;;;;5070879;28;20048;-65
2021/12/16 11:54:53;;;;;;;37.92;10.65;;;10.10;99.90;;;;;;5075889;28;20085;-65
2021/12/16 11:57:27;;;;;;;49.72;12.68;;;10.20;99.90;;;;;;5076360;28;20039;-64
2021/12/16 11:59:59;;;;;;;38.83;12.55;;;10.20;99.90;;;;;;5078828;28;20020;-65
2021/12/16 12:02:53;;;;;;;39.45;11.15;;;10.20;99.90;;;;;;5076083;28;20047;-64
2021/12/16 12:05:35;;;;;;;37.67;11.55;;;10.30;99.90;;;;;;5055799;28;20040;-64
2021/12/16 12:08:06;;;;;;;35.75;10.95;;;10.30;99.90;;;;;;5078444;28;20543;-65
2021/12/16 12:10:50;;;;;;;61.45;13.55;;;10.40;99.90;;;;;;5073435;28;20507;-65
2021/12/16 12:13:25;;;;;;;38.38;12.95;;;10.40;99.90;;;;;;5077966;28;20021;-65
2021/12/16 12:15:56;;;;;;;42.05;11.57;;;10.40;99.90;;;;;;5079428;28;20059;-65
2021/12/16 12:18:39;;;;;;;49.03;13.35;;;10.40;99.90;;;;;;5071829;28;20115;-65
2021/12/16 12:21:39;;;;;;;45.88;12.05;;;10.40;99.90;;;;;;5074798;28;20033;-65
2021/12/16 12:24:14;;;;;;;48.53;11.48;;;10.50;99.90;;;;;;5058683;28;20039;-64
2021/12/16 12:26:44;;;;;;;46.17;11.82;;;10.50;99.90;;;;;;5073320;28;20020;-65
2021/12/16 12:29:27;;;;;;;51.55;11.93;;;10.50;99.90;;;;;;5071465;28;20425;-66
2021/12/16 12:32:02;;;;;;;39.10;11.93;;;10.50;99.90;;;;;;5076991;28;20033;-65
2021/12/16 12:34:29;;;;;;;46.15;12.23;;;10.60;99.90;;;;;;5076929;28;20452;-65
2021/12/16 12:36:58;;;;;;;37.28;11.13;;;10.60;99.90;;;;;;5075116;28;20070;-65
2021/12/16 12:39:29;;;;;;;43.63;11.77;;;10.60;99.90;;;;;;5071321;28;20044;-65
2021/12/16 12:41:55;;;;;;;42.38;11.73;;;10.60;99.90;;;;;;5077154;28;20025;-65
2021/12/16 12:44:21;;;;;;;52.60;13.05;;;10.60;99.90;;;;;;5067360;28;20039;-65
2021/12/16 12:46:48;;;;;;;46.83;11.02;;;10.50;99.90;;;;;;5068622;28;20476;-65
2021/12/16 12:49:16;;;;;;;43.40;11.70;;;10.50;99.90;;;;;;5074283;28;20310;-65
2021/12/16 12:51:47;;;;;;;49.40;13.05;;;10.50;99.90;;;;;;5073519;28;20032;-65
2021/12/16 12:54:25;;;;;;;37.78;10.75;;;10.50;99.90;;;;;;5074572;28;20016;-65
2021/12/16 12:56:52;;;;;;;44.05;13.00;;;10.50;99.90;;;;;;5073420;28;20484;-65
2021/12/16 12:59:19;;;;;;;45.17;12.13;;;10.40;99.90;;;;;;5073576;28;20533;-65
2021/12/16 13:01:48;;;;;;;43.88;11.57;;;10.40;99.90;;;;;;5073063;28;20066;-65
2021/12/16 13:04:17;;;;;;;36.63;12.60;;;10.40;99.90;;;;;;5067731;28;20024;-65
2021/12/16 13:06:56;;;;;;;39.97;12.07;;;10.40;99.90;;;;;;5076135;28;20057;-65
2021/12/16 13:09:43;;;;;;;48.85;12.70;;;10.50;99.90;;;;;;5067987;28;20029;-65
2021/12/16 13:13:00;;;;;;;48.67;9.65;;;10.40;99.90;;;;;;5068579;28;20028;-65
2021/12/16 13:26:44;;;;;;;38.60;9.55;;;10.40;99.90;;;;;;5078467;28;20488;-65
2021/12/16 13:29:54;;;;;;;58.15;12.07;;;10.30;99.90;;;;;;5075340;28;20460;-64
2021/12/16 13:32:27;;;;;;;50.97;12.35;;;10.30;99.90;;;;;;5073662;28;20065;-64
2021/12/16 13:35:10;;;;;;;37.38;11.88;;;10.30;99.90;;;;;;5070825;28;20024;-66
2021/12/16 13:37:42;;;;;;;44.28;11.43;;;10.30;99.90;;;;;;5067433;28;20028;-65
2021/12/16 13:40:19;;;;;;;45.50;12.45;;;10.40;99.90;;;;;;5063982;28;20165;-65
2021/12/16 13:42:51;;;;;;;41.35;11.55;;;10.40;99.90;;;;;;5078946;28;20024;-65
2021/12/16 13:45:24;;;;;;;55.65;12.48;;;10.50;99.90;;;;;;5073588;28;20015;-65
2021/12/16 13:48:04;;;;;;;50.20;12.27;;;10.40;99.90;;;;;;5075488;28;20035;-65
2021/12/16 14:02:05;;;;;;;40.38;11.10;;;10.40;99.90;;;;;;5076234;28;20201;-65
2021/12/16 14:07:29;;;;;;;44.13;12.48;;;10.30;99.90;;;;;;5073115;28;20059;-65
2021/12/16 14:10:15;;;;;;;52.22;13.07;;;10.30;99.90;;;;;;5065241;28;20520;-65
2021/12/16 14:16:22;;;;;;;32.95;10.90;;;10.40;99.90;;;;;;5070577;28;20035;-65
2021/12/16 14:25:06;;;;;;;41.15;11.65;;;10.20;99.90;;;;;;5066378;28;20047;-65
2021/12/16 14:47:04;;;;;;;32.57;10.37;;;10.10;99.90;;;;;;5069874;28;20028;-65
2021/12/16 14:49:38;;;;;;;42.45;11.82;;;10.10;99.90;;;;;;5068057;28;20032;-65
2021/12/16 14:52:12;;;;;;;39.88;9.13;;;10.10;99.90;;;;;;5065605;28;20017;-65
2021/12/16 14:54:51;;;;;;;30.85;10.13;;;10.10;99.90;;;;;;5075948;28;20063;-65
2021/12/16 14:57:26;;;;;;;43.17;10.65;;;10.00;99.90;;;;;;5080906;28;20416;-65
2021/12/16 14:59:52;;;;;;;25.77;8.13;;;10.00;99.90;;;;;;5072108;28;20027;-65
2021/12/16 15:02:20;;;;;;;30.67;10.98;;;10.00;99.90;;;;;;5074103;28;20028;-65
2021/12/16 15:04:46;;;;;;;53.70;11.25;;;10.00;99.90;;;;;;5078388;28;20044;-65
2021/12/16 15:07:12;;;;;;;37.67;10.20;;;9.90;99.90;;;;;;5067092;28;20105;-65
2021/12/16 15:09:40;;;;;;;48.53;12.73;;;10.00;99.90;;;;;;5070191;28;20027;-65
2021/12/16 15:12:14;;;;;;;40.35;11.57;;;10.00;99.90;;;;;;5069884;28;20023;-64
2021/12/16 15:45:33;;;;;;;41.22;9.95;;;9.80;99.90;;;;;;5072562;28;20403;-65
2021/12/16 15:48:02;;;;;;;42.38;9.20;;;9.70;99.90;;;;;;5076612;28;20060;-65
2021/12/16 15:50:39;;;;;;;47.80;11.25;;;9.80;99.90;;;;;;5075963;28;20032;-65
2021/12/16 15:53:12;;;;;;;39.00;9.18;;;9.80;99.90;;;;;;5069849;28;20090;-65
2021/12/16 15:55:52;;;;;;;28.95;9.73;;;9.80;99.90;;;;;;5075887;28;20166;-65
2021/12/16 15:58:23;;;;;;;;;;;9.70;99.90;;;;;;5068526;28;20071;-65
2021/12/16 16:00:56;;;;;;;30.70;10.68;;;9.70;99.90;;;;;;5071139;28;19954;-65
2021/12/16 16:03:22;;;;;;;38.25;10.38;;;9.70;99.90;;;;;;5075574;28;20087;-65
2021/12/16 16:05:53;;;;;;;40.90;10.45;;;9.70;99.90;;;;;;5071120;28;20032;-65
2021/12/16 16:08:21;;;;;;;42.85;10.52;;;9.70;99.90;;;;;;5072356;28;20020;-65
2021/12/16 16:10:50;;;;;;;29.73;8.60;;;9.80;99.90;;;;;;5070212;28;20021;-65
2021/12/16 16:13:25;;;;;;;36.20;10.02;;;9.80;99.90;;;;;;5073194;28;20016;-65
2021/12/16 16:15:54;;;;;;;38.35;10.80;;;9.80;99.90;;;;;;5075362;28;20105;-65
2021/12/16 16:21:05;;;;;;;38.97;10.75;;;9.70;99.90;;;;;;5078796;28;20290;-65
2021/12/16 16:23:34;;;;;;;36.42;11.43;;;9.70;99.90;;;;;;5070066;28;20495;-65
2021/12/16 16:26:07;;;;;;;28.13;10.50;;;9.70;99.90;;;;;;5065480;28;20029;-65
2021/12/16 16:28:34;;;;;;;36.83;8.93;;;9.70;99.90;;;;;;5072391;28;20039;-65
2021/12/16 16:31:01;;;;;;;44.28;10.40;;;9.70;99.90;;;;;;5082515;28;20028;-65
2021/12/16 16:33:32;;;;;;;28.92;9.02;;;9.70;99.90;;;;;;5078538;28;20127;-65
2021/12/16 16:36:04;;;;;;;27.52;9.10;;;9.60;99.90;;;;;;5071477;28;20052;-65
2021/12/16 16:38:42;;;;;;;30.52;9.35;;;9.60;99.90;;;;;;5077669;28;20032;-65
2021/12/16 16:41:15;;;;;;;34.13;8.85;;;9.50;99.90;;;;;;5074654;28;20028;-65
2021/12/16 16:43:44;;;;;;;38.05;9.18;;;9.50;99.90;;;;;;5072691;28;20059;-65